Time;durP1;ratioP1;P1;durP2;ratioP2;P2;SDS_P1;SDS_P2;PMS_P1;PMS_P2;Temp;Humidity;BMP_temperature;BMP_pressure;BME280_temperature;BME280_humidity;BME280_pressure;Samples;Min_cycle;Max_cycle;Signal;HPM_P1;HPM_P2
2021/01/12 00:01:54;;;;;;;1.60;1.00;;;20.50;42.60;;;;;;6273746;28;20021;-57
2021/01/12 00:04:54;;;;;;;1.33;1.00;;;20.50;42.60;;;;;;6265396;28;20028;-56
2021/01/12 00:07:55;;;;;;;1.40;1.00;;;20.50;42.60;;;;;;6266320;28;20028;-58
2021/01/12 00:10:55;;;;;;;1.27;1.00;;;20.50;42.60;;;;;;6265271;28;20028;-57
2021/01/12 00:13:57;;;;;;;1.38;0.90;;;20.40;42.60;;;;;;6275918;28;20055;-55
2021/01/12 00:16:59;;;;;;;1.33;1.10;;;20.40;42.60;;;;;;6278167;28;20032;-55
2021/01/12 00:20:00;;;;;;;1.67;1.00;;;20.40;42.70;;;;;;6278133;28;20710;-55
2021/01/12 00:23:01;;;;;;;1.38;1.05;;;20.40;42.60;;;;;;6277849;28;20051;-54
2021/01/12 00:26:06;;;;;;;2.10;1.15;;;20.40;42.60;;;;;;6276522;28;20074;-56
2021/01/12 00:29:06;;;;;;;1.45;0.90;;;20.40;42.80;;;;;;6277798;28;20445;-56
2021/01/12 00:32:07;;;;;;;1.30;1.10;;;20.40;42.70;;;;;;6278107;28;20138;-57
2021/01/12 00:35:08;;;;;;;1.17;1.05;;;20.40;42.70;;;;;;6269907;28;20429;-56
2021/01/12 00:38:11;;;;;;;1.42;1.00;;;20.30;42.60;;;;;;6269378;28;20115;-57
2021/01/12 00:41:12;;;;;;;1.35;1.10;;;20.30;42.60;;;;;;6274564;28;20028;-57
2021/01/12 00:44:13;;;;;;;1.27;1.17;;;20.30;42.60;;;;;;6277204;28;20024;-57
2021/01/12 00:47:14;;;;;;;1.38;1.05;;;20.30;42.60;;;;;;6277987;28;20066;-58
2021/01/12 00:50:14;;;;;;;1.85;1.08;;;20.30;42.60;;;;;;6276696;28;20024;-54
2021/01/12 00:53:15;;;;;;;1.67;1.13;;;20.30;42.50;;;;;;6277760;28;20036;-56
2021/01/12 00:56:16;;;;;;;1.33;1.00;;;20.30;42.60;;;;;;6269365;28;20537;-54
2021/01/12 00:59:17;;;;;;;1.52;1.30;;;20.30;42.60;;;;;;6286166;28;20128;-58
2021/01/12 01:02:17;;;;;;;1.40;1.10;;;20.30;42.60;;;;;;6269366;28;20074;-54
2021/01/12 01:05:18;;;;;;;0.90;0.73;;;20.30;42.60;;;;;;6277450;28;20443;-56
2021/01/12 01:08:18;;;;;;;1.27;1.02;;;20.30;42.50;;;;;;6277502;28;20207;-54
2021/01/12 01:11:20;;;;;;;1.40;0.80;;;20.30;42.60;;;;;;6276832;28;20083;-58
2021/01/12 01:14:21;;;;;;;2.00;1.25;;;20.30;42.70;;;;;;6277380;28;20481;-55
2021/01/12 01:17:21;;;;;;;1.73;1.20;;;20.30;42.60;;;;;;6277001;28;20035;-56
2021/01/12 01:20:22;;;;;;;1.20;1.00;;;20.30;42.60;;;;;;6277024;28;20023;-53
2021/01/12 01:23:22;;;;;;;0.85;0.80;;;20.30;42.60;;;;;;6276652;28;20020;-54
2021/01/12 01:26:23;;;;;;;0.80;0.73;;;20.30;43.40;;;;;;6277098;28;20051;-56
2021/01/12 01:29:24;;;;;;;1.00;0.90;;;20.30;42.60;;;;;;6294859;28;20043;-56
2021/01/12 01:32:24;;;;;;;1.00;0.80;;;20.30;42.60;;;;;;6275911;28;20397;-55
2021/01/12 01:35:25;;;;;;;1.20;1.00;;;20.30;42.60;;;;;;6276589;28;20028;-56
2021/01/12 01:38:26;;;;;;;1.60;1.10;;;20.30;42.70;;;;;;6276448;28;20341;-55
2021/01/12 01:41:26;;;;;;;1.00;0.90;;;20.30;42.80;;;;;;6276422;28;20032;-56
2021/01/12 01:44:27;;;;;;;1.17;0.98;;;20.20;42.60;;;;;;6276118;28;20033;-57
2021/01/12 01:47:28;;;;;;;1.38;0.98;;;20.20;42.70;;;;;;6268148;28;20032;-57
2021/01/12 01:50:28;;;;;;;1.15;0.98;;;20.20;42.60;;;;;;6272835;28;20024;-56
2021/01/12 01:53:33;;;;;;;1.58;0.93;;;20.20;42.60;;;;;;6276522;28;20028;-55
2021/01/12 01:56:34;;;;;;;1.48;1.10;;;20.30;42.70;;;;;;6267998;28;20402;-57
2021/01/12 01:59:34;;;;;;;1.58;1.17;;;20.20;42.50;;;;;;6275927;28;20043;-57
2021/01/12 02:02:59;;;;;;;1.30;1.10;;;20.20;43.10;;;;;;6275746;28;20027;-57
2021/01/12 02:06:06;;;;;;;0.90;0.67;;;20.20;42.70;;;;;;6275878;28;20036;-56
2021/01/12 02:09:29;;;;;;;0.88;0.80;;;20.20;42.70;;;;;;6267679;28;20049;-58
2021/01/12 02:12:39;;;;;;;1.45;1.17;;;20.20;42.70;;;;;;6267821;28;20029;-55
2021/01/12 02:15:41;;;;;;;0.95;0.88;;;20.20;42.70;;;;;;6270495;28;20356;-56
2021/01/12 02:18:42;;;;;;;2.15;1.05;;;20.20;42.70;;;;;;6275867;28;20431;-55
2021/01/12 02:21:53;;;;;;;0.93;0.90;;;20.20;42.80;;;;;;6283132;28;20033;-54
2021/01/12 02:24:55;;;;;;;0.93;0.93;;;20.20;42.70;;;;;;6267603;28;20125;-57
2021/01/12 02:27:55;;;;;;;1.20;1.00;;;20.20;42.80;;;;;;6274681;28;20385;-54
2021/01/12 02:30:57;;;;;;;1.85;1.25;;;20.10;42.60;;;;;;6275317;28;20017;-52
2021/01/12 02:34:02;;;;;;;1.45;1.10;;;20.10;42.80;;;;;;6275297;28;20036;-55
2021/01/12 02:37:03;;;;;;;1.45;1.00;;;20.10;42.70;;;;;;6291031;28;20028;-56
2021/01/12 02:40:05;;;;;;;1.00;0.90;;;20.20;42.80;;;;;;6291844;28;20025;-54
2021/01/12 02:43:05;;;;;;;0.85;0.70;;;20.10;42.70;;;;;;6291118;28;20521;-56
2021/01/12 02:46:06;;;;;;;1.15;0.90;;;20.10;42.70;;;;;;6274743;28;20392;-55
2021/01/12 02:49:06;;;;;;;1.63;0.93;;;20.10;42.70;;;;;;6275046;28;20024;-57
2021/01/12 02:52:07;;;;;;;1.10;1.00;;;20.10;42.70;;;;;;6274495;28;20024;-56
2021/01/12 02:55:09;;;;;;;1.00;0.90;;;20.10;42.70;;;;;;6274885;28;20055;-57
2021/01/12 02:58:10;;;;;;;1.10;0.90;;;20.10;42.70;;;;;;6274609;28;20485;-57
2021/01/12 03:01:10;;;;;;;1.23;0.95;;;20.10;42.70;;;;;;6274499;28;20094;-56
2021/01/12 03:04:11;;;;;;;1.10;1.00;;;20.10;42.80;;;;;;6274127;28;20396;-56
2021/01/12 03:07:14;;;;;;;1.20;1.02;;;20.10;42.80;;;;;;6274612;28;20021;-56
2021/01/12 03:10:15;;;;;;;1.77;1.05;;;20.10;42.70;;;;;;6274040;28;20446;-57
2021/01/12 03:13:15;;;;;;;1.00;0.90;;;20.10;42.70;;;;;;6274541;28;20021;-56
2021/01/12 03:16:16;;;;;;;1.25;0.98;;;20.10;42.80;;;;;;6274477;28;20028;-58
2021/01/12 03:19:16;;;;;;;1.10;0.90;;;20.10;42.80;;;;;;6266472;28;20029;-55
2021/01/12 03:22:17;;;;;;;0.77;0.70;;;20.10;42.70;;;;;;6270617;28;20127;-56
2021/01/12 03:25:20;;;;;;;1.23;1.00;;;20.10;42.80;;;;;;6274651;28;20060;-55
2021/01/12 03:28:20;;;;;;;1.00;0.90;;;20.10;42.90;;;;;;6274014;28;20039;-56
2021/01/12 03:31:21;;;;;;;0.80;0.80;;;20.00;42.80;;;;;;6265989;28;20029;-57
2021/01/12 03:34:22;;;;;;;0.98;0.80;;;20.10;42.80;;;;;;6266073;28;20025;-56
2021/01/12 03:37:23;;;;;;;0.70;0.70;;;20.00;42.80;;;;;;6252740;28;20516;-58
2021/01/12 03:40:23;;;;;;;1.10;0.98;;;20.00;42.70;;;;;;6265937;28;20025;-55
2021/01/12 03:43:24;;;;;;;1.17;1.00;;;20.10;42.80;;;;;;6273870;28;20016;-55
2021/01/12 03:46:25;;;;;;;1.17;1.00;;;20.00;42.70;;;;;;6274488;28;20017;-57
2021/01/12 03:49:26;;;;;;;1.35;0.88;;;20.00;42.70;;;;;;6295505;28;20499;-58
2021/01/12 03:52:26;;;;;;;0.90;0.80;;;20.00;42.70;;;;;;6279021;28;20060;-56
2021/01/12 03:55:27;;;;;;;1.00;0.90;;;20.00;42.70;;;;;;6278557;28;20029;-55
2021/01/12 03:58:27;;;;;;;1.02;0.90;;;20.00;42.80;;;;;;6270761;28;20025;-58
2021/01/12 04:01:28;;;;;;;1.50;0.98;;;20.00;42.70;;;;;;6270801;28;20551;-56
2021/01/12 04:04:28;;;;;;;1.00;0.90;;;20.00;42.80;;;;;;6270757;28;20024;-58
2021/01/12 04:07:29;;;;;;;1.13;0.88;;;20.00;42.80;;;;;;6278414;28;20034;-58
2021/01/12 04:10:31;;;;;;;1.00;0.90;;;20.00;42.80;;;;;;6269749;28;20466;-58
2021/01/12 04:13:31;;;;;;;1.83;1.00;;;20.00;42.90;;;;;;6278390;28;20046;-56
2021/01/12 04:16:32;;;;;;;1.50;1.00;;;20.00;42.90;;;;;;6296070;28;20033;-57
2021/01/12 04:19:33;;;;;;;1.48;0.95;;;20.00;42.90;;;;;;6278409;28;20120;-57
2021/01/12 04:22:35;;;;;;;1.67;1.00;;;20.00;42.90;;;;;;6278084;28;20021;-56
2021/01/12 04:25:38;;;;;;;0.95;0.77;;;20.00;42.90;;;;;;6278367;28;20020;-56
2021/01/12 04:28:39;;;;;;;0.82;0.80;;;20.00;42.80;;;;;;6278076;28;20029;-58
2021/01/12 04:31:39;;;;;;;1.10;0.98;;;20.00;42.90;;;;;;6296058;28;20020;-53
2021/01/12 04:34:40;;;;;;;1.38;0.90;;;19.90;42.90;;;;;;6277905;28;20050;-57
2021/01/12 04:37:40;;;;;;;1.20;1.00;;;19.90;42.90;;;;;;6278124;28;20028;-55
2021/01/12 04:40:41;;;;;;;0.63;0.60;;;19.90;42.90;;;;;;6277853;28;20477;-57
2021/01/12 04:43:41;;;;;;;1.45;1.02;;;19.90;42.90;;;;;;6277650;28;20028;-56
2021/01/12 04:46:42;;;;;;;1.00;0.90;;;20.00;42.90;;;;;;6269651;28;20024;-57
2021/01/12 04:49:43;;;;;;;0.73;0.73;;;19.90;42.80;;;;;;6277308;28;20074;-55
2021/01/12 04:52:45;;;;;;;0.93;0.90;;;19.90;42.90;;;;;;6277665;28;20499;-56
2021/01/12 04:55:46;;;;;;;1.27;0.90;;;19.90;42.90;;;;;;6277305;28;20384;-57
2021/01/12 04:58:55;;;;;;;1.00;0.90;;;20.00;43.00;;;;;;6277123;28;20033;-53
2021/01/12 05:01:57;;;;;;;1.23;0.90;;;19.90;42.90;;;;;;6277025;28;20384;-57
2021/01/12 05:04:57;;;;;;;1.05;0.90;;;19.90;42.90;;;;;;6277054;28;20488;-56
2021/01/12 05:07:59;;;;;;;1.08;0.80;;;20.00;43.00;;;;;;6277522;28;20095;-56
2021/01/12 05:11:00;;;;;;;1.00;0.90;;;19.90;42.90;;;;;;6293109;28;20017;-56
2021/01/12 05:14:05;;;;;;;0.95;0.85;;;19.90;42.80;;;;;;6295151;28;20032;-56
2021/01/12 05:17:07;;;;;;;0.98;0.70;;;20.00;42.90;;;;;;6268469;28;20059;-56
2021/01/12 05:20:10;;;;;;;0.88;0.70;;;20.00;42.90;;;;;;6268603;28;20025;-57
2021/01/12 05:23:12;;;;;;;1.20;0.95;;;20.00;42.90;;;;;;6268506;28;20029;-54
2021/01/12 05:26:16;;;;;;;1.63;0.98;;;20.00;42.90;;;;;;6285061;28;20029;-56
2021/01/12 05:29:17;;;;;;;1.05;0.95;;;20.00;43.00;;;;;;6286173;28;20025;-57
2021/01/12 05:32:20;;;;;;;1.02;0.90;;;20.00;42.90;;;;;;6276488;28;20447;-56
2021/01/12 05:35:21;;;;;;;0.70;0.70;;;20.00;43.00;;;;;;6276350;28;20090;-56
2021/01/12 05:38:27;;;;;;;0.77;0.65;;;20.10;43.10;;;;;;6276572;28;20120;-57
2021/01/12 05:41:29;;;;;;;1.00;0.85;;;20.00;43.10;;;;;;6275971;28;20024;-56
2021/01/12 05:44:35;;;;;;;0.68;0.68;;;20.10;43.20;;;;;;6275880;28;20112;-57
2021/01/12 05:47:36;;;;;;;0.85;0.75;;;20.10;43.10;;;;;;6276292;28;20032;-54
2021/01/12 05:50:37;;;;;;;0.70;0.70;;;20.10;43.10;;;;;;6275784;28;20589;-55
2021/01/12 05:53:47;;;;;;;1.35;0.90;;;20.10;43.10;;;;;;6276251;28;20077;-57
2021/01/12 05:56:49;;;;;;;1.00;0.90;;;20.10;43.20;;;;;;6267847;28;20435;-56
2021/01/12 05:59:52;;;;;;;0.77;0.60;;;20.10;43.20;;;;;;6269164;28;20029;-53
2021/01/12 06:02:57;;;;;;;0.60;0.60;;;20.10;43.20;;;;;;6275355;28;20025;-55
2021/01/12 06:05:58;;;;;;;1.00;0.90;;;20.10;43.20;;;;;;6275919;28;20024;-57
2021/01/12 06:08:59;;;;;;;0.98;0.70;;;20.10;43.00;;;;;;6267186;28;20386;-57
2021/01/12 06:12:00;;;;;;;1.98;0.60;;;20.30;42.80;;;;;;6274896;28;20086;-56
2021/01/12 06:15:03;;;;;;;0.85;0.73;;;20.40;42.70;;;;;;6274789;28;20048;-55
2021/01/12 06:18:04;;;;;;;0.65;0.57;;;20.50;42.80;;;;;;6275504;28;20029;-56
2021/01/12 06:21:17;;;;;;;0.93;0.70;;;20.50;42.60;;;;;;6275368;28;20366;-56
2021/01/12 06:24:39;;;;;;;1.15;0.77;;;20.60;42.70;;;;;;6275197;28;20489;-54
2021/01/12 06:27:40;;;;;;;1.23;0.80;;;20.60;42.70;;;;;;6275048;28;20473;-57
2021/01/12 06:30:42;;;;;;;4.72;3.13;;;20.60;42.70;;;;;;6261088;28;20039;-55
2021/01/12 06:33:54;;;;;;;3.92;1.25;;;20.30;39.90;;;;;;6281709;28;20469;-59
2021/01/12 06:36:57;;;;;;;2.30;1.60;;;20.50;40.80;;;;;;6270346;28;20032;-58
2021/01/12 06:39:58;;;;;;;4.22;1.50;;;20.70;40.50;;;;;;6273688;28;20078;-55
2021/01/12 06:42:59;;;;;;;3.45;1.17;;;20.90;40.50;;;;;;6266496;28;20367;-54
2021/01/12 06:46:01;;;;;;;5.97;1.30;;;21.00;40.70;;;;;;6273414;28;20029;-56
2021/01/12 06:49:01;;;;;;;4.35;1.05;;;21.00;40.90;;;;;;6273913;28;20380;-54
2021/01/12 06:52:12;;;;;;;2.55;1.08;;;21.10;41.00;;;;;;6270889;28;20036;-56
2021/01/12 06:55:15;;;;;;;2.17;1.00;;;21.20;41.20;;;;;;6273468;28;20021;-55
2021/01/12 06:58:16;;;;;;;0.93;0.82;;;21.20;41.40;;;;;;6266201;28;20070;-53
2021/01/12 07:01:24;;;;;;;2.55;1.10;;;21.20;41.50;;;;;;6272056;28;20021;-55
2021/01/12 07:04:29;;;;;;;5.45;1.00;;;21.30;41.80;;;;;;6271888;28;20035;-56
2021/01/12 07:07:30;;;;;;;0.85;0.80;;;21.30;41.80;;;;;;6275441;28;20023;-54
2021/01/12 07:10:31;;;;;;;2.92;1.02;;;21.30;42.00;;;;;;6273393;28;20024;-55
2021/01/12 07:13:40;;;;;;;1.15;0.80;;;21.30;42.10;;;;;;6275283;28;20034;-53
2021/01/12 07:16:41;;;;;;;1.45;1.00;;;21.40;42.40;;;;;;6274822;28;20032;-57
2021/01/12 07:19:42;;;;;;;2.05;1.00;;;21.30;42.50;;;;;;6275323;28;20035;-56
2021/01/12 07:22:55;;;;;;;1.25;0.88;;;21.30;43.30;;;;;;6274091;28;20024;-57
2021/01/12 07:26:04;;;;;;;0.88;0.82;;;21.40;42.80;;;;;;6283016;28;20371;-53
2021/01/12 07:29:06;;;;;;;0.93;0.73;;;21.30;42.70;;;;;;6291544;28;20395;-52
2021/01/12 07:32:06;;;;;;;1.70;1.20;;;21.40;42.80;;;;;;6272394;28;20535;-56
2021/01/12 07:35:09;;;;;;;1.10;0.77;;;21.40;42.80;;;;;;6274823;28;20024;-60
2021/01/12 07:38:31;;;;;;;0.70;0.70;;;21.40;42.80;;;;;;6282973;28;20472;-57
2021/01/12 07:41:31;;;;;;;1.23;0.88;;;21.40;42.90;;;;;;6274574;28;20033;-58
2021/01/12 07:44:32;;;;;;;1.80;0.80;;;21.40;42.90;;;;;;6274706;28;20103;-56
2021/01/12 07:47:32;;;;;;;2.78;0.80;;;21.40;42.80;;;;;;6275169;28;20035;-54
2021/01/12 07:50:33;;;;;;;1.05;0.80;;;21.40;43.00;;;;;;6274169;28;20017;-58
2021/01/12 07:53:34;;;;;;;9.00;0.75;;;21.50;42.70;;;;;;6291814;28;20381;-54
2021/01/12 07:56:35;;;;;;;4.43;0.90;;;21.50;42.50;;;;;;6278250;28;20036;-55
2021/01/12 07:59:37;;;;;;;2.83;0.80;;;21.50;42.90;;;;;;6273741;28;20017;-57
2021/01/12 08:02:39;;;;;;;3.00;0.80;;;21.50;42.80;;;;;;6274064;28;20423;-52
2021/01/12 08:05:40;;;;;;;1.08;0.63;;;21.50;43.40;;;;;;6274913;28;20358;-53
2021/01/12 08:08:41;;;;;;;1.90;0.60;;;21.50;42.70;;;;;;6265946;28;20024;-54
2021/01/12 08:11:41;;;;;;;9.65;0.90;;;21.50;42.70;;;;;;6272335;28;20127;-54
2021/01/12 08:14:42;;;;;;;3.13;0.63;;;21.60;42.80;;;;;;6278719;28;20115;-57
2021/01/12 08:17:50;;;;;;;4.28;0.90;;;21.60;42.70;;;;;;6272049;28;20020;-56
2021/01/12 08:20:54;;;;;;;2.42;1.30;;;21.60;42.70;;;;;;6292406;28;20037;-52
2021/01/12 08:24:02;;;;;;;1.85;0.68;;;21.60;42.70;;;;;;6272755;28;20127;-57
2021/01/12 08:27:06;;;;;;;2.85;0.70;;;21.60;42.80;;;;;;6274382;28;20033;-57
2021/01/12 08:30:08;;;;;;;2.97;0.80;;;21.60;43.00;;;;;;6273214;28;20584;-57
2021/01/12 08:33:23;;;;;;;7.82;0.95;;;21.60;43.00;;;;;;6271903;28;20029;-55
2021/01/12 08:36:26;;;;;;;7.80;0.80;;;21.60;43.50;;;;;;6278539;28;20386;-57
2021/01/12 08:39:27;;;;;;;2.50;0.60;;;21.50;43.20;;;;;;6277477;28;20538;-54
2021/01/12 08:42:31;;;;;;;0.80;0.70;;;21.50;43.30;;;;;;6278436;28;20031;-51
2021/01/12 08:45:33;;;;;;;0.93;0.70;;;21.40;43.40;;;;;;6291300;28;20028;-54
2021/01/12 08:48:34;;;;;;;1.40;0.60;;;21.40;43.40;;;;;;6294609;28;20021;-57
2021/01/12 08:51:35;;;;;;;1.00;0.50;;;21.30;43.30;;;;;;6279017;28;20063;-56
2021/01/12 08:54:35;;;;;;;2.65;0.55;;;21.30;43.40;;;;;;6295341;28;20040;-54
2021/01/12 08:57:36;;;;;;;1.85;0.70;;;21.30;43.50;;;;;;6278862;28;20035;-56
2021/01/12 09:00:38;;;;;;;1.13;0.70;;;21.20;43.40;;;;;;6278431;28;20020;-57
2021/01/12 09:03:42;;;;;;;3.58;0.75;;;21.20;43.40;;;;;;6278816;28;20064;-56
2021/01/12 09:06:42;;;;;;;0.77;0.77;;;21.20;43.50;;;;;;6279339;28;20036;-58
2021/01/12 09:09:51;;;;;;;0.95;0.77;;;21.20;43.50;;;;;;6278557;28;20480;-57
2021/01/12 09:12:54;;;;;;;0.80;0.70;;;21.20;43.60;;;;;;6278338;28;20040;-52
2021/01/12 09:15:54;;;;;;;0.68;0.68;;;21.20;43.60;;;;;;6269960;28;20033;-55
2021/01/12 09:18:55;;;;;;;0.65;0.60;;;21.10;43.50;;;;;;6272157;28;20024;-57
2021/01/12 09:22:15;;;;;;;0.65;0.60;;;21.10;43.50;;;;;;6277398;28;20025;-57
2021/01/12 09:25:23;;;;;;;0.85;0.63;;;21.10;43.50;;;;;;6270173;28;20029;-55
2021/01/12 09:28:30;;;;;;;1.00;0.63;;;21.10;43.50;;;;;;6270053;28;20039;-53
2021/01/12 09:31:40;;;;;;;0.85;0.60;;;21.10;43.60;;;;;;6269992;28;20025;-57
2021/01/12 09:34:41;;;;;;;2.17;0.63;;;21.10;43.60;;;;;;6276252;28;20020;-56
2021/01/12 09:37:42;;;;;;;1.65;0.70;;;21.10;43.60;;;;;;6269611;28;20116;-58
2021/01/12 09:40:42;;;;;;;1.00;0.50;;;21.10;43.60;;;;;;6277474;28;20025;-57
2021/01/12 09:43:43;;;;;;;0.63;0.50;;;21.10;43.60;;;;;;6277106;28;20029;-57
2021/01/12 09:46:44;;;;;;;1.10;0.70;;;21.10;43.60;;;;;;6276644;28;20052;-56
2021/01/12 09:49:44;;;;;;;0.77;0.60;;;21.10;43.70;;;;;;6277348;28;20051;-52
2021/01/12 09:52:45;;;;;;;0.50;0.50;;;21.10;43.60;;;;;;6277289;28;20158;-58
2021/01/12 09:55:46;;;;;;;0.40;0.40;;;21.10;43.60;;;;;;6277419;28;20028;-53
2021/01/12 09:58:51;;;;;;;0.50;0.50;;;21.10;43.60;;;;;;6277197;28;20503;-57
2021/01/12 10:01:56;;;;;;;0.77;0.70;;;21.10;43.70;;;;;;6277198;28;20476;-58
2021/01/12 10:04:56;;;;;;;1.33;0.75;;;21.10;43.60;;;;;;6277067;28;20516;-53
2021/01/12 10:07:57;;;;;;;0.65;0.50;;;21.10;43.60;;;;;;6277196;28;20021;-57
2021/01/12 10:10:57;;;;;;;0.60;0.50;;;21.10;43.60;;;;;;6277078;28;20058;-52
2021/01/12 10:13:58;;;;;;;1.13;0.70;;;21.20;43.60;;;;;;6277378;28;20405;-57
2021/01/12 10:16:58;;;;;;;1.17;0.50;;;21.20;43.60;;;;;;6277031;28;20539;-55
2021/01/12 10:19:59;;;;;;;0.80;0.60;;;21.10;43.50;;;;;;6276779;28;20035;-57
2021/01/12 10:23:00;;;;;;;0.43;0.43;;;21.20;43.60;;;;;;6277100;28;20044;-54
2021/01/12 10:26:01;;;;;;;1.30;0.60;;;21.10;43.60;;;;;;6276794;28;20336;-51
2021/01/12 10:29:01;;;;;;;0.50;0.50;;;21.10;43.50;;;;;;6277029;28;20036;-57
2021/01/12 10:32:05;;;;;;;0.82;0.47;;;21.10;43.60;;;;;;6268248;28;20029;-57
2021/01/12 10:35:06;;;;;;;0.52;0.50;;;21.20;43.70;;;;;;6253415;28;20117;-58
2021/01/12 10:38:06;;;;;;;1.13;0.60;;;21.10;43.60;;;;;;6276738;28;20024;-56
2021/01/12 10:41:07;;;;;;;0.47;0.40;;;21.20;43.70;;;;;;6275929;28;20330;-57
2021/01/12 10:44:08;;;;;;;0.52;0.50;;;21.20;43.70;;;;;;6294446;28;20024;-56
2021/01/12 10:47:09;;;;;;;0.52;0.50;;;21.10;43.60;;;;;;6267618;28;20059;-57
2021/01/12 10:50:15;;;;;;;0.70;0.60;;;21.20;43.80;;;;;;6284672;28;20021;-58
2021/01/12 10:53:16;;;;;;;1.55;0.60;;;21.20;43.70;;;;;;6251318;28;20053;-57
2021/01/12 10:56:17;;;;;;;0.30;0.30;;;21.10;43.60;;;;;;6275474;28;20531;-51
2021/01/12 10:59:17;;;;;;;0.68;0.50;;;21.10;43.50;;;;;;6275961;28;20028;-57
2021/01/12 11:02:18;;;;;;;0.30;0.30;;;21.10;43.50;;;;;;6275718;28;20029;-57
2021/01/12 11:05:19;;;;;;;0.85;0.60;;;21.10;43.60;;;;;;6276268;28;20024;-55
2021/01/12 11:08:19;;;;;;;0.60;0.55;;;21.20;43.60;;;;;;6275692;28;20032;-58
2021/01/12 11:11:20;;;;;;;0.60;0.50;;;21.10;43.60;;;;;;6276208;28;20504;-53
2021/01/12 11:14:22;;;;;;;0.50;0.50;;;21.20;43.70;;;;;;6276024;28;20115;-58
2021/01/12 11:17:24;;;;;;;0.47;0.35;;;21.10;43.50;;;;;;6267739;28;20021;-56
2021/01/12 11:20:24;;;;;;;0.30;0.30;;;21.10;43.60;;;;;;6267621;28;20036;-54
2021/01/12 11:23:25;;;;;;;0.43;0.43;;;21.10;43.50;;;;;;6292659;28;20056;-52
2021/01/12 11:26:32;;;;;;;0.50;0.50;;;21.10;43.60;;;;;;6275652;28;20032;-58
2021/01/12 11:29:32;;;;;;;0.57;0.50;;;21.10;43.60;;;;;;6275529;28;20032;-56
2021/01/12 11:32:34;;;;;;;0.43;0.43;;;21.10;43.60;;;;;;6274856;28;20021;-57
2021/01/12 11:35:34;;;;;;;1.33;0.50;;;21.10;43.60;;;;;;6275950;28;20024;-55
2021/01/12 11:38:35;;;;;;;1.63;0.70;;;21.10;43.60;;;;;;6267585;28;20394;-56
2021/01/12 11:41:37;;;;;;;0.50;0.50;;;21.10;43.60;;;;;;6271156;28;20500;-53
2021/01/12 11:44:38;;;;;;;0.73;0.60;;;21.10;43.60;;;;;;6275639;28;20028;-52
2021/01/12 11:47:39;;;;;;;0.50;0.40;;;21.10;43.60;;;;;;6267189;28;20471;-56
2021/01/12 11:50:39;;;;;;;0.40;0.40;;;21.10;43.60;;;;;;6284439;28;20024;-57
2021/01/12 11:53:40;;;;;;;0.85;0.40;;;21.10;43.60;;;;;;6275186;28;20504;-56
2021/01/12 11:56:41;;;;;;;0.63;0.52;;;21.10;43.60;;;;;;6293629;28;20020;-57
2021/01/12 11:59:42;;;;;;;0.50;0.50;;;21.10;43.70;;;;;;6275120;28;20043;-58
2021/01/12 12:02:43;;;;;;;0.43;0.43;;;21.10;43.60;;;;;;6275037;28;20024;-57
2021/01/12 12:05:45;;;;;;;0.75;0.50;;;21.10;43.60;;;;;;6275623;28;20543;-57
2021/01/12 12:08:46;;;;;;;0.38;0.38;;;21.10;43.50;;;;;;6276952;28;20013;-53
2021/01/12 12:11:48;;;;;;;0.55;0.45;;;21.20;43.40;;;;;;6279998;28;20111;-58
2021/01/12 12:14:48;;;;;;;0.57;0.40;;;21.20;43.50;;;;;;6279576;28;20028;-56
2021/01/12 12:17:49;;;;;;;0.40;0.40;;;21.20;43.40;;;;;;6279906;28;20524;-58
2021/01/12 12:20:50;;;;;;;0.70;0.50;;;21.20;43.40;;;;;;6278787;28;20076;-52
2021/01/12 12:23:50;;;;;;;0.57;0.55;;;21.20;43.20;;;;;;6271216;28;20075;-58
2021/01/12 12:26:52;;;;;;;0.47;0.47;;;21.20;43.20;;;;;;6271110;28;20493;-52
2021/01/12 12:29:53;;;;;;;0.47;0.47;;;21.30;43.20;;;;;;6279979;28;20032;-54
2021/01/12 12:32:53;;;;;;;0.38;0.38;;;21.30;43.20;;;;;;6279641;28;20392;-58
2021/01/12 12:36:10;;;;;;;0.40;0.40;;;21.30;43.10;;;;;;6280997;28;20117;-53
2021/01/12 12:39:11;;;;;;;1.05;0.40;;;21.30;43.10;;;;;;6270834;28;20021;-57
2021/01/12 12:42:12;;;;;;;0.60;0.50;;;21.30;43.00;;;;;;6271534;28;20037;-58
2021/01/12 12:45:13;;;;;;;0.40;0.40;;;21.30;43.10;;;;;;6279132;28;20427;-57
2021/01/12 12:48:14;;;;;;;0.40;0.40;;;21.30;43.10;;;;;;6296850;28;20031;-56
2021/01/12 12:51:14;;;;;;;0.40;0.40;;;21.30;43.10;;;;;;6279149;28;20035;-60
2021/01/12 12:54:15;;;;;;;4.20;0.88;;;21.30;43.10;;;;;;6267081;28;20028;-51
2021/01/12 12:57:16;;;;;;;3.60;0.47;;;21.30;43.10;;;;;;6297484;28;20020;-55
2021/01/12 13:00:17;;;;;;;4.05;0.43;;;21.40;42.90;;;;;;6273908;28;20035;-54
2021/01/12 13:03:18;;;;;;;0.98;0.43;;;21.50;42.70;;;;;;6275700;28;20066;-53
2021/01/12 13:06:19;;;;;;;3.55;0.50;;;21.50;42.40;;;;;;6276847;28;20021;-52
2021/01/12 13:09:21;;;;;;;7.15;0.70;;;21.60;42.60;;;;;;6277669;28;20075;-57
2021/01/12 13:12:28;;;;;;;4.13;0.40;;;21.60;43.20;;;;;;6277485;28;20024;-53
2021/01/12 13:15:30;;;;;;;0.63;0.50;;;21.60;42.70;;;;;;6291272;28;20016;-57
2021/01/12 13:18:38;;;;;;;1.42;0.40;;;21.60;42.60;;;;;;6295241;28;20025;-54
2021/01/12 13:21:53;;;;;;;3.85;0.65;;;21.70;42.70;;;;;;6269988;28;20448;-56
2021/01/12 13:24:54;;;;;;;0.65;0.50;;;21.70;42.70;;;;;;6276172;28;20041;-56
2021/01/12 13:27:55;;;;;;;2.05;0.60;;;21.70;42.80;;;;;;6285142;28;20028;-57
2021/01/12 13:30:56;;;;;;;0.98;0.52;;;21.70;43.20;;;;;;6276324;28;20084;-52
2021/01/12 13:33:56;;;;;;;3.10;0.40;;;21.80;43.00;;;;;;6271021;28;20666;-56
2021/01/12 13:36:57;;;;;;;0.20;0.20;;;21.80;42.60;;;;;;6276363;28;20435;-56
2021/01/12 13:39:58;;;;;;;0.57;0.30;;;21.80;42.60;;;;;;6275079;28;20444;-52
2021/01/12 13:42:59;;;;;;;0.73;0.40;;;21.80;42.80;;;;;;6288136;28;20372;-56
2021/01/12 13:46:00;;;;;;;0.65;0.30;;;21.80;42.60;;;;;;6280234;28;20025;-58
2021/01/12 13:49:00;;;;;;;2.28;0.40;;;21.80;42.60;;;;;;6281402;28;20070;-56
2021/01/12 13:52:01;;;;;;;1.67;0.55;;;21.80;42.60;;;;;;6275341;28;20469;-54
2021/01/12 13:55:03;;;;;;;0.50;0.40;;;21.80;42.60;;;;;;6297906;28;20029;-56
2021/01/12 13:58:06;;;;;;;0.50;0.50;;;21.80;42.60;;;;;;6278421;28;20567;-53
2021/01/12 14:01:06;;;;;;;1.05;0.50;;;21.80;42.50;;;;;;6274984;28;20387;-58
2021/01/12 14:04:07;;;;;;;0.40;0.30;;;21.90;42.70;;;;;;6290148;28;20032;-51
2021/01/12 14:07:08;;;;;;;0.40;0.40;;;21.90;42.70;;;;;;6281569;28;20079;-55
2021/01/12 14:10:09;;;;;;;1.05;0.40;;;21.80;42.60;;;;;;6275851;28;20366;-53
2021/01/12 14:13:10;;;;;;;0.68;0.40;;;21.90;42.70;;;;;;6275594;28;20032;-55
2021/01/12 14:16:11;;;;;;;0.60;0.43;;;21.90;42.70;;;;;;6265620;28;20477;-56
2021/01/12 14:19:14;;;;;;;0.88;0.50;;;21.90;42.90;;;;;;6268718;28;20108;-57
2021/01/12 14:22:20;;;;;;;2.20;0.50;;;22.00;43.10;;;;;;6266639;28;20135;-56
2021/01/12 14:25:21;;;;;;;2.97;0.65;;;22.00;42.90;;;;;;6280473;28;20040;-55
2021/01/12 14:28:23;;;;;;;2.25;0.55;;;22.00;42.90;;;;;;6275299;28;20037;-55
2021/01/12 14:31:23;;;;;;;1.40;0.57;;;22.00;42.90;;;;;;6267459;28;20025;-55
2021/01/12 14:34:24;;;;;;;1.20;0.50;;;22.00;42.90;;;;;;6275170;28;20123;-57
2021/01/12 14:37:35;;;;;;;2.92;0.47;;;22.00;43.00;;;;;;6274872;28;20029;-56
2021/01/12 14:40:45;;;;;;;1.50;0.50;;;22.00;42.90;;;;;;6273761;28;20024;-57
2021/01/12 14:43:45;;;;;;;0.40;0.40;;;22.00;42.80;;;;;;6274386;28;20029;-57
2021/01/12 14:46:50;;;;;;;2.78;0.60;;;22.00;42.90;;;;;;6291814;28;20210;-57
2021/01/12 14:49:51;;;;;;;1.53;0.30;;;22.00;43.00;;;;;;6286675;28;20028;-54
2021/01/12 14:52:55;;;;;;;0.80;0.40;;;22.00;42.90;;;;;;6270145;28;20082;-56
2021/01/12 14:55:55;;;;;;;3.45;0.63;;;22.00;42.90;;;;;;6274811;28;20066;-57
2021/01/12 14:58:56;;;;;;;3.30;0.60;;;22.00;42.90;;;;;;6265904;28;20025;-56
2021/01/12 15:02:00;;;;;;;0.40;0.40;;;22.00;42.90;;;;;;6275360;28;20155;-55
2021/01/12 15:05:00;;;;;;;2.07;0.50;;;22.00;42.90;;;;;;6267485;28;20024;-55
2021/01/12 15:08:01;;;;;;;5.72;0.57;;;22.00;42.90;;;;;;6282644;28;20064;-57
2021/01/12 15:11:05;;;;;;;8.35;0.90;;;22.10;43.00;;;;;;6274635;28;20030;-58
2021/01/12 15:14:06;;;;;;;9.07;0.90;;;22.10;42.90;;;;;;6265828;28;20400;-60
2021/01/12 15:17:07;;;;;;;7.65;0.98;;;22.10;43.20;;;;;;6268061;28;20017;-55
2021/01/12 15:20:08;;;;;;;2.13;0.60;;;22.20;43.50;;;;;;6281350;28;20116;-59
2021/01/12 15:23:08;;;;;;;6.95;0.70;;;22.20;43.00;;;;;;6274132;28;20480;-57
2021/01/12 15:26:09;;;;;;;3.80;0.50;;;22.20;42.90;;;;;;6274644;28;20047;-57
2021/01/12 15:29:09;;;;;;;1.10;0.70;;;22.30;42.80;;;;;;6268206;28;20036;-56
2021/01/12 15:32:10;;;;;;;1.00;0.68;;;22.20;42.60;;;;;;6282416;28;20028;-59
2021/01/12 15:35:12;;;;;;;0.98;0.60;;;22.20;42.80;;;;;;6274296;28;20040;-53
2021/01/12 15:38:12;;;;;;;2.85;0.60;;;22.20;42.60;;;;;;6274544;28;20067;-58
2021/01/12 15:41:13;;;;;;;1.08;0.50;;;22.20;42.50;;;;;;6274045;28;20021;-53
2021/01/12 15:44:13;;;;;;;1.70;0.70;;;22.20;43.20;;;;;;6277578;28;20366;-60
2021/01/12 15:47:14;;;;;;;3.08;1.02;;;22.20;42.40;;;;;;6284879;28;20021;-57
2021/01/12 15:50:14;;;;;;;6.55;0.70;;;22.20;42.40;;;;;;6266931;28;20020;-59